Latest Weather Observations for Mount Lofty

IDS60801

Issued at 4:35 pm CST Thursday 2 October 2014 (issued every 30 minutes, with the page automatically refreshed every 10 minutes)

About weather observations | Map of weather stations | Latest weather observations for SA | Other Formats
Station Details ID: 023842 Name: MOUNT LOFTY Lat: -34.98 Lon: 138.71 Height: 685.0 m
Data from the previous 72 hours. | See also: Recent months at Mount Lofty
Date/Time
CST
Temp
°C
App
Temp
°C
Dew
Point
Rel
Hum
%
Delta-T
°C
Wind Press
QNH
hPa
Press
MSL
hPa
Rain
since 9 am
mm
Dir
 
Spd
km/h
Gust
km/h
Spd
kts
Gust
kts
02/04:30pm 13.1 11.0 6.7 65 3.2 ESE 7 13 4 7 - - 0.0
02/04:00pm 13.9 11.8 6.7 62 3.6 ESE 7 15 4 8 - - 0.0
02/03:30pm 14.1 12.2 6.5 60 3.8 SE 6 11 3 6 - - 0.0
02/03:00pm 14.4 12.5 6.7 60 3.9 ESE 6 11 3 6 - - 0.0
02/02:30pm 14.2 12.7 6.6 60 3.8 E 4 9 2 5 - - 0.0
02/02:00pm 13.6 11.7 6.5 62 3.5 E 6 13 3 7 - - 0.0
02/01:30pm 13.4 11.3 5.8 60 3.7 E 6 11 3 6 - - 0.0
02/01:00pm 12.8 11.3 6.6 66 3.1 SSE 4 7 2 4 - - 0.0
02/12:30pm 12.6 11.2 7.1 69 2.8 S 4 9 2 5 - - 0.0
02/12:00pm 11.3 9.1 5.4 67 2.8 S 6 11 3 6 - - 0.0
02/11:30am 11.1 9.5 6.5 73 2.3 E 4 7 2 4 - - 0.0
02/11:00am 10.5 8.8 6.1 74 2.1 SSE 4 9 2 5 - - 0.0
02/10:30am 9.7 7.5 5.5 75 2.0 ESE 6 13 3 7 - - 0.0
02/10:00am 8.7 6.5 5.1 78 1.7 S 6 11 3 6 - - 0.0
02/09:30am 8.3 6.1 5.2 81 1.4 S 6 13 3 7 - - 0.0
02/09:00am 7.8 5.9 4.7 81 1.4 SSE 4 9 2 5 - - 0.0
02/08:30am 7.4 5.1 5.0 85 1.1 SSE 6 19 3 10 - - 0.0
02/08:00am 6.8 4.9 4.8 87 0.9 SE 4 9 2 5 - - 0.0
02/07:30am 6.5 4.6 5.0 90 0.7 SE 4 11 2 6 - - 0.0
02/07:00am 5.9 3.6 4.7 92 0.5 ESE 6 11 3 6 - - 0.0
02/06:30am 5.5 3.2 4.6 94 0.4 SE 6 9 3 5 - - 0.0
02/06:00am 5.0 2.6 4.3 95 0.3 ESE 6 11 3 6 - - 0.0
02/05:30am 4.6 1.9 3.9 95 0.3 E 7 13 4 7 - - 0.0
02/05:00am 4.8 1.4 3.9 94 0.4 ESE 11 17 6 9 - - 0.0
02/04:30am 4.7 1.3 4.0 95 0.3 ESE 11 17 6 9 - - 0.0
02/04:00am 4.6 1.1 3.7 94 0.4 ESE 11 17 6 9 - - 0.0
02/03:30am 4.6 0.8 3.7 94 0.4 E 13 17 7 9 - - 0.0
02/03:00am 4.5 1.4 3.8 95 0.3 E 9 17 5 9 - - 0.0
02/02:30am 4.7 1.6 3.8 94 0.4 E 9 17 5 9 - - 0.0
02/02:00am 4.8 2.1 3.8 93 0.4 ESE 7 11 4 6 - - 0.0
02/01:30am 5.0 2.4 4.0 93 0.4 ESE 7 9 4 5 - - 0.0
02/01:00am 5.2 2.6 4.2 93 0.4 ESE 7 15 4 8 - - 0.0
02/12:30am 5.3 2.7 4.3 93 0.4 ESE 7 13 4 7 - - 0.0
02/12:00am 5.3 2.3 4.1 92 0.5 ESE 9 13 5 7 - - 0.0
 
Date/Time
CST
Temp
°C
App
Temp
°C
Dew
Point
Rel
Hum
%
Delta-T
°C
Wind Press
QNH
hPa
Press
MSL
hPa
Rain
since 9 am
mm
Dir
 
Spd
km/h
Gust
km/h
Spd
kts
Gust
kts
01/11:30pm 5.2 2.2 3.9 91 0.6 ESE 9 15 5 8 - - 0.0
01/11:00pm 5.2 1.8 4.0 92 0.5 ESE 11 15 6 8 - - 0.0
01/10:30pm 5.2 2.2 3.9 91 0.6 ESE 9 15 5 8 - - 0.0
01/10:00pm 5.3 1.9 3.8 90 0.7 ESE 11 17 6 9 - - 0.0
01/09:30pm 5.4 2.4 3.9 90 0.7 E 9 15 5 8 - - 0.0
01/09:00pm 5.4 2.7 3.6 88 0.8 ESE 7 13 4 7 - - 0.0
01/08:30pm 5.4 2.8 3.3 86 0.9 ESE 6 9 3 5 - - 0.0
01/08:00pm 5.7 3.1 3.4 85 1.0 ESE 6 9 3 5 - - 0.0
01/07:30pm 6.2 3.7 3.5 83 1.2 ESE 6 11 3 6 - - 0.0
01/07:00pm 6.6 3.9 3.9 83 1.2 ESE 7 13 4 7 - - 0.0
01/06:30pm 7.4 5.0 4.2 80 1.4 SE 6 9 3 5 - - 0.0
01/06:00pm 8.9 6.9 4.5 74 2.0 SE 4 6 2 3 - - 0.0
01/05:30pm 10.0 8.1 4.8 70 2.4 SSE 4 13 2 7 - - 0.0
01/05:00pm 10.8 8.5 4.9 67 2.8 ESE 6 13 3 7 - - 0.0
01/04:30pm 11.7 9.5 5.3 65 3.1 SE 6 13 3 7 - - 0.0
01/04:00pm 12.3 10.1 5.2 62 3.4 S 6 15 3 8 - - 0.0
01/03:30pm 12.5 10.1 4.2 57 3.9 S 6 13 3 7 - - 0.0
01/03:00pm 12.9 10.7 5.1 59 3.8 SSE 6 9 3 5 - - 0.0
01/02:30pm 12.1 10.0 3.9 57 3.8 SE 4 9 2 5 - - 0.0
01/02:00pm 11.3 9.6 5.8 69 2.7 SSE 4 6 2 3 - - 0.0
01/01:30pm 12.2 9.7 3.9 57 3.9 S 6 13 3 7 - - 0.0
01/01:00pm 12.2 9.8 4.2 58 3.8 SSE 6 11 3 6 - - 0.0
01/12:30pm 10.8 8.3 4.0 63 3.1 SSE 6 11 3 6 - - 0.0
01/12:00pm 10.4 7.8 3.4 62 3.2 SSE 6 15 3 8 - - 0.0
01/11:30am 10.3 7.8 3.6 63 3.1 SE 6 9 3 5 - - 0.0
01/11:00am 9.9 7.6 4.9 71 2.3 SSW 6 13 3 7 - - 0.0
01/10:30am 9.4 7.3 4.0 69 2.5 SW 4 7 2 4 - - 0.0
01/10:00am 10.0 7.6 4.4 68 2.6 ESE 6 13 3 7 - - 0.0
01/09:30am 8.1 5.5 3.4 72 2.1 SW 6 13 3 7 - - 0.0
01/09:00am 7.8 5.2 3.3 73 2.0 S 6 11 3 6 - - -
01/08:30am 8.1 5.6 3.8 74 1.9 S 6 11 3 6 - - -
01/08:00am 7.5 4.9 3.0 73 2.0 SSW 6 15 3 8 - - -
01/07:30am 7.0 4.4 4.0 81 1.3 S 7 19 4 10 - - -
01/07:00am 6.1 3.5 4.1 87 0.9 S 7 17 4 9 - - -
01/06:30am 5.9 3.2 3.9 87 0.9 S 7 15 4 8 - - -
01/06:00am 5.4 2.7 3.9 90 0.7 S 7 13 4 7 - - -
01/05:30am 5.4 2.6 3.4 87 0.9 S 7 11 4 6 - - -
01/05:00am 5.3 2.6 3.5 88 0.8 SSW 7 15 4 8 - - -
01/04:30am 5.6 2.9 3.8 88 0.8 S 7 15 4 8 - - -
01/04:00am 5.9 3.3 4.1 88 0.8 S 7 15 4 8 - - -
01/03:30am 6.0 3.3 3.5 84 1.1 SSW 7 19 4 10 - - -
01/03:00am 5.6 2.6 4.1 90 0.7 SW 9 15 5 8 - - 0.0
01/02:30am 5.6 3.0 4.2 91 0.6 SW 7 19 4 10 - - -
01/02:00am 6.1 3.1 4.3 88 0.8 SW 9 20 5 11 - - -
01/01:30am 5.9 2.9 4.2 89 0.8 SW 9 22 5 12 - - -
01/01:00am 6.0 3.0 4.3 89 0.8 SW 9 20 5 11 - - -
01/12:30am 6.0 3.1 4.6 91 0.6 SW 9 17 5 9 - - -
01/12:00am 6.2 2.9 4.8 91 0.6 SW 11 20 6 11 - - -
 
Date/Time
CST
Temp
°C
App
Temp
°C
Dew
Point
Rel
Hum
%
Delta-T
°C
Wind Press
QNH
hPa
Press
MSL
hPa
Rain
since 9 am
mm
Dir
 
Spd
km/h
Gust
km/h
Spd
kts
Gust
kts
30/11:30pm 6.2 3.3 4.7 90 0.7 SW 9 20 5 11 - - -
30/11:00pm 6.4 3.6 5.0 91 0.6 SW 9 19 5 10 - - -
30/10:30pm 6.5 3.2 4.8 89 0.8 WSW 11 26 6 14 - - -
30/10:00pm 6.8 3.5 4.8 87 0.9 WSW 11 26 6 14 - - -
30/09:30pm 6.9 3.2 4.7 86 1.0 WSW 13 32 7 17 - - -
30/09:00pm 7.4 3.1 5.2 86 1.0 WSW 17 35 9 19 - - 0.0
30/08:30pm 8.0 4.6 6.0 87 0.9 W 13 28 7 15 - - -
30/08:00pm 8.1 4.5 6.7 91 0.7 W 15 26 8 14 - - -
30/07:30pm 8.1 4.5 6.6 90 0.7 W 15 30 8 16 - - -
30/07:00pm 8.1 4.4 6.4 89 0.8 W 15 30 8 16 - - -
30/06:30pm 8.3 3.8 6.3 87 1.0 W 19 39 10 21 - - -
30/06:00pm 8.5 4.4 6.0 84 1.2 W 17 30 9 16 - - -
30/05:30pm 9.5 4.6 4.1 69 2.5 W 19 37 10 20 - - -
30/05:00pm 10.1 5.6 6.1 76 1.9 W 19 33 10 18 - - -
30/04:30pm 10.6 6.2 6.4 75 2.0 W 19 35 10 19 - - -
30/04:00pm 10.5 5.3 5.3 70 2.5 W 22 39 12 21 - - -
30/03:30pm 10.7 5.3 6.5 75 2.1 W 24 41 13 22 - - -
30/03:00pm 9.8 5.9 9.3 97 0.3 W 20 35 11 19 - - -
30/02:30pm 8.8 3.9 8.4 97 0.2 W 24 44 13 24 - - -
30/02:00pm 8.9 4.0 8.3 96 0.3 W 24 48 13 26 - - -
30/01:30pm 9.8 5.0 9.0 95 0.4 W 24 39 13 21 - - -
30/01:00pm 12.1 7.1 9.7 85 1.3 W 26 52 14 28 - - -
30/12:37pm 12.2 6.8 9.4 83 1.5 W 28 54 15 29 - - -
30/12:30pm 11.9 6.8 9.3 84 1.4 W 26 46 14 25 - - -
30/12:00pm 11.4 5.2 9.5 88 1.0 W 32 69 17 37 - - -
30/11:30am 12.4 6.6 9.4 82 1.6 W 30 50 16 27 - - 0.0
30/11:00am 11.9 6.3 8.9 82 1.6 WNW 28 50 15 27 - - 0.0
30/10:42am 12.2 6.3 8.9 80 1.7 W 30 52 16 28 - - 0.0
30/09:30am 12.1 6.7 9.5 84 1.4 WNW 28 50 15 27 - - 0.0
30/09:05am 12.1 6.5 8.8 80 1.7 WNW 28 46 15 25 - - 0.0
30/09:00am 11.9 6.6 8.6 80 1.7 WNW 26 41 14 22 - - 0.2
30/08:38am 11.7 6.1 8.6 81 1.6 W 28 54 15 29 - - 0.2
30/08:30am 11.5 6.0 9.1 85 1.2 WNW 28 43 15 23 - - 0.2
30/08:10am 10.7 5.0 8.3 85 1.2 WNW 28 52 15 28 - - 0.2
30/08:00am 10.1 4.8 8.4 89 0.9 WNW 26 46 14 25 - - 0.2
30/07:30am 10.5 4.2 7.6 82 1.4 WNW 30 52 16 28 - - 0.2
30/07:04am 10.3 3.3 7.0 80 1.6 WNW 33 59 18 32 - - 0.2
30/07:00am 9.8 3.1 7.4 85 1.2 WNW 32 48 17 26 - - 0.2
30/06:31am 9.4 3.3 6.8 84 1.3 WNW 28 52 15 28 - - 0.2
30/06:30am 9.5 3.8 6.9 84 1.3 WNW 26 44 14 24 - - 0.2
30/06:18am 9.2 3.1 6.5 83 1.3 WNW 28 50 15 27 - - 0.2
30/06:00am 9.3 3.2 6.4 82 1.4 WNW 28 43 15 23 - - 0.2
30/05:50am 9.6 3.5 6.7 82 1.4 WNW 28 48 15 26 - - 0.2
30/05:30am 9.5 4.2 6.8 83 1.3 WNW 24 41 13 22 - - 0.0
30/05:00am 9.6 4.0 7.0 84 1.3 WNW 26 43 14 23 - - 0.0
30/04:30am 8.9 4.9 8.9 100 0.0 WNW 20 35 11 19 - - 0.0
30/04:00am 9.4 5.5 9.4 100 0.0 NW 20 32 11 17 - - 0.0
30/03:30am 9.7 5.9 9.7 100 0.0 WNW 20 32 11 17 - - 0.0
30/03:00am 9.6 5.9 9.6 100 0.0 NW 19 35 10 19 - - 0.0
30/02:30am 9.7 6.1 9.7 100 0.0 WNW 19 32 10 17 - - 0.0
30/02:00am 9.4 6.1 9.4 100 0.0 WNW 17 24 9 13 - - 0.0
30/01:30am 9.4 6.4 9.4 100 0.0 WNW 15 20 8 11 - - 0.0
30/01:00am 9.3 7.1 9.3 100 0.0 W 11 19 6 10 - - 0.0
30/12:30am 9.3 6.7 9.3 100 0.0 W 13 19 7 10 - - 0.0
30/12:00am 9.2 7.3 9.2 100 0.0 W 9 19 5 10 - - 0.0
 
Date/Time
CST
Temp
°C
App
Temp
°C
Dew
Point
Rel
Hum
%
Delta-T
°C
Wind Press
QNH
hPa
Press
MSL
hPa
Rain
since 9 am
mm
Dir
 
Spd
km/h
Gust
km/h
Spd
kts
Gust
kts
29/11:30pm 9.2 7.0 9.2 100 0.0 W 11 19 6 10 - - 0.0
29/11:00pm 9.3 7.5 9.3 100 0.0 W 9 17 5 9 - - 0.0
29/10:30pm 9.3 7.1 9.3 100 0.0 W 11 19 6 10 - - 0.0
29/10:00pm 9.4 6.8 9.4 100 0.0 W 13 22 7 12 - - 0.0
29/09:30pm 9.6 7.1 9.6 100 0.0 W 13 19 7 10 - - 0.0
29/09:00pm 9.9 7.4 9.8 99 0.1 W 13 20 7 11 - - 0.0
29/08:30pm 10.4 7.8 9.5 94 0.5 W 13 24 7 13 - - 0.0
29/08:00pm 10.8 8.0 8.7 87 1.1 W 13 24 7 13 - - 0.0
29/07:30pm 11.4 7.7 7.9 79 1.8 W 17 30 9 16 - - 0.0
29/07:00pm 11.6 8.5 7.3 75 2.2 W 13 24 7 13 - - 0.0
29/06:30pm 11.9 8.1 7.4 74 2.3 WNW 17 28 9 15 - - 0.0
29/06:00pm 12.6 9.2 7.5 71 2.6 WNW 15 26 8 14 - - 0.0
29/05:30pm 13.4 10.0 7.6 68 3.0 WNW 15 28 8 15 - - 0.0
29/05:00pm 13.7 9.5 7.5 66 3.2 WNW 19 32 10 17 - - 0.0

Other Formats:

Comma delimited format used in spreadsheet applications
http://www.bom.gov.au/fwo/IDS60801/IDS60801.95678.axf

JavaScript Object Notation format (JSON) in row-major order
http://www.bom.gov.au/fwo/IDS60801/IDS60801.95678.json